Lewisville, Indiana
Current Conditions -  °F | °C
As of 2:53 AM on Friday 19 Dec 2014 (Local Time) from KGEZ Reporting Station
Overcast Overcast  
Wind Chill: 20°   Ceiling: 1600
Heat Index: 27°   Visibility: 10mi
Dew Point: 20°   Wind: 6mph
Humidity: 75%   Direction: 330°NNW
Pressure: 30.25"   Gusts: NA
Location:  39.81°N, 85.35°W
Report Text: KGEZ 190753Z AUTO 33005KT 10SM OVC016 M03/M07 A3025 RMK AO2 SLP252 T10281067
Loading
Personal Weather Stations






























Interactive Weather Map New forecast layout! Learn more

10-Day Weather Forecast

Advertisements
Track Severe Weather on mobile